createdAt,value
2018-08-30T03:36:41.858Z,97888.88
2018-08-30T03:39:10.043Z,97893.41
2018-08-30T03:41:38.212Z,97895.35
2018-08-30T03:44:06.529Z,97884.34
2018-08-30T03:46:34.735Z,97885.02
2018-08-30T03:49:02.907Z,97888.52
2018-08-30T03:51:31.129Z,97885.08
2018-08-30T03:53:59.325Z,97882.52
2018-08-30T03:56:27.488Z,97882.37
2018-08-30T03:58:55.659Z,97884.30
2018-08-30T04:01:23.936Z,97884.16
2018-08-30T04:03:52.111Z,97879.42
2018-08-30T04:06:20.293Z,97874.24
2018-08-30T04:08:48.465Z,97881.35
2018-08-30T04:11:16.662Z,97884.50
2018-08-30T04:13:44.862Z,97881.00
2018-08-30T04:16:13.051Z,97879.58
2018-08-30T04:18:41.246Z,97881.75
2018-08-30T04:21:09.430Z,97887.30
2018-08-30T04:23:37.596Z,97884.98
2018-08-30T04:26:05.878Z,97887.09
2018-08-30T04:28:34.060Z,97895.60
2018-08-30T04:31:02.282Z,97890.87
2018-08-30T04:33:30.459Z,97897.77
2018-08-30T04:35:58.641Z,97894.79
2018-08-30T04:38:26.829Z,97893.21
2018-08-30T04:40:55.006Z,97894.20
2018-08-30T04:43:23.197Z,97897.54
2018-08-30T04:45:51.383Z,97901.48
2018-08-30T04:48:19.575Z,97901.91
2018-08-30T04:50:47.765Z,97906.63
2018-08-30T04:53:16.005Z,97904.06
2018-08-30T04:55:44.203Z,97903.30
2018-08-30T04:58:12.457Z,97904.84
2018-08-30T05:00:40.637Z,97905.84
2018-08-30T05:03:08.847Z,97906.47
2018-08-30T05:05:37.055Z,97905.08
2018-08-30T05:08:05.428Z,97907.03
2018-08-30T05:10:33.639Z,97909.81
2018-08-30T05:13:01.847Z,97913.91
2018-08-30T05:15:30.037Z,97908.80
2018-08-30T05:17:58.212Z,97905.27
2018-08-30T05:20:26.437Z,97913.72
2018-08-30T05:22:54.717Z,97913.94
2018-08-30T05:25:22.865Z,97920.61
2018-08-30T05:27:51.171Z,97923.00
2018-08-30T05:30:19.424Z,97926.15
2018-08-30T05:32:47.716Z,97926.34
2018-08-30T05:35:15.906Z,97938.72
2018-08-30T05:37:44.080Z,97937.38
2018-08-30T05:40:12.254Z,97931.45
2018-08-30T05:42:40.824Z,97947.41
2018-08-30T05:45:09.012Z,97942.89
2018-08-30T05:47:37.190Z,97950.36
2018-08-30T05:50:05.614Z,97956.04
2018-08-30T05:52:33.952Z,97960.02
2018-08-30T05:55:02.234Z,97963.16
2018-08-30T05:57:30.457Z,97962.76
2018-08-30T05:59:58.998Z,97970.19
2018-08-30T06:02:28.513Z,97967.30
2018-08-30T06:04:56.709Z,97968.70
2018-08-30T06:07:24.975Z,97957.98
2018-08-30T06:09:53.142Z,97964.11
2018-08-30T06:12:21.361Z,97968.27
2018-08-30T06:14:49.557Z,97976.98
2018-08-30T06:17:17.824Z,97974.40
2018-08-30T06:19:46.345Z,97978.34
2018-08-30T06:22:14.565Z,97982.67
2018-08-30T06:24:42.833Z,97986.77
2018-08-30T06:27:11.121Z,97995.63
2018-08-30T06:29:39.349Z,98000.94
2018-08-30T06:32:07.574Z,98003.05
2018-08-30T06:34:35.850Z,98006.58
2018-08-30T06:37:04.096Z,98009.95
2018-08-30T06:39:32.290Z,98013.85
2018-08-30T06:42:00.480Z,98012.70
2018-08-30T06:44:28.896Z,98012.15
2018-08-30T06:46:57.068Z,98011.91
2018-08-30T06:49:25.537Z,98021.22
2018-08-30T06:51:53.710Z,98029.53
2018-08-30T06:54:21.893Z,98023.03
2018-08-30T06:56:50.133Z,98025.36
2018-08-30T06:59:18.317Z,98030.16
2018-08-30T07:01:46.728Z,98027.59
2018-08-30T07:04:15.008Z,98034.73
2018-08-30T07:06:43.489Z,98037.63
2018-08-30T07:09:12.589Z,98041.41
2018-08-30T07:11:41.077Z,98038.50
2018-08-30T07:14:09.265Z,98034.34
2018-08-30T07:16:37.453Z,98035.98
2018-08-30T07:19:05.661Z,98037.52
2018-08-30T07:21:33.817Z,98036.99
2018-08-30T07:24:01.975Z,98046.02
2018-08-30T07:26:30.151Z,98047.98
2018-08-30T07:28:58.357Z,98057.80
2018-08-30T07:31:26.503Z,98058.81
2018-08-30T07:33:55.006Z,98058.59
2018-08-30T07:36:23.174Z,98072.67
2018-08-30T07:38:51.324Z,98071.81
2018-08-30T07:41:19.509Z,98073.62
2018-08-30T07:43:47.648Z,98080.87
2018-08-30T07:46:15.847Z,98081.77
2018-08-30T07:48:44.045Z,98085.12
2018-08-30T07:51:12.195Z,98084.30
2018-08-30T07:53:40.371Z,98084.64
2018-08-30T07:56:08.554Z,98091.42
2018-08-30T07:58:36.794Z,98087.67
2018-08-30T08:01:05.002Z,98097.30
2018-08-30T08:03:33.166Z,98106.59
2018-08-30T08:06:01.400Z,98110.61
2018-08-30T08:08:29.494Z,98107.74
2018-08-30T08:10:57.728Z,98097.47
2018-08-30T08:13:25.997Z,98108.24
2018-08-30T08:15:54.245Z,98102.14
2018-08-30T08:18:22.458Z,98101.28
2018-08-30T08:20:50.871Z,98109.27
2018-08-30T08:23:19.355Z,98104.73
2018-08-30T08:25:47.579Z,98122.91
2018-08-30T08:28:15.730Z,98128.77
2018-08-30T08:30:43.881Z,98127.13
2018-08-30T08:33:12.039Z,98131.38
2018-08-30T08:35:40.284Z,98138.52
2018-08-30T08:38:08.434Z,98138.48
2018-08-30T08:40:36.609Z,98140.39
2018-08-30T08:43:04.789Z,98147.38
2018-08-30T08:45:32.942Z,98143.92
2018-08-30T08:48:01.110Z,98153.08
2018-08-30T08:50:29.253Z,98151.92
2018-08-30T08:52:57.582Z,98146.73
2018-08-30T08:55:26.004Z,98150.44
2018-08-30T08:57:54.204Z,98151.38
2018-08-30T09:00:22.353Z,98150.39
2018-08-30T09:02:50.612Z,98148.99
2018-08-30T09:05:19.078Z,98157.54
2018-08-30T09:07:47.289Z,98163.03
2018-08-30T09:10:15.404Z,98163.64
2018-08-30T09:12:43.555Z,98161.02
2018-08-30T09:15:11.752Z,98166.37
2018-08-30T09:17:40.213Z,98162.22
2018-08-30T09:20:08.571Z,98166.20
2018-08-30T09:22:36.747Z,98161.66
2018-08-30T09:25:05.191Z,98163.95
2018-08-30T09:27:33.453Z,98165.88
2018-08-30T09:30:01.732Z,98164.95
2018-08-30T09:32:30.017Z,98161.26
2018-08-30T09:34:58.360Z,98160.30
2018-08-30T09:37:26.581Z,98159.79
2018-08-30T09:39:54.777Z,98164.06
2018-08-30T09:42:23.011Z,98168.35
2018-08-30T09:44:51.178Z,98160.69
2018-08-30T09:47:19.364Z,98161.86
2018-08-30T09:49:47.701Z,98159.48
2018-08-30T09:52:15.784Z,98162.82
2018-08-30T09:54:43.975Z,98157.70
2018-08-30T09:57:12.298Z,98165.16
2018-08-30T09:59:40.324Z,98158.50
2018-08-30T10:02:13.791Z,98156.27
2018-08-30T10:04:42.372Z,98164.47
2018-08-30T10:07:10.570Z,98159.78
2018-08-30T10:09:38.793Z,98158.58
2018-08-30T10:12:06.959Z,98165.84
2018-08-30T10:14:35.189Z,98163.17
2018-08-30T10:17:03.412Z,98163.23
2018-08-30T10:19:31.581Z,98167.89
2018-08-30T10:21:59.938Z,98168.02
2018-08-30T10:24:28.129Z,98174.36
2018-08-30T10:26:56.369Z,98176.77
2018-08-30T10:29:24.551Z,98173.25
2018-08-30T10:31:52.744Z,98173.69
2018-08-30T10:34:21.001Z,98171.37
2018-08-30T10:36:49.238Z,98171.90
2018-08-30T10:39:17.508Z,98168.23
2018-08-30T10:41:45.679Z,98177.13
2018-08-30T10:44:13.929Z,98167.98
2018-08-30T10:46:42.101Z,98172.64
2018-08-30T10:49:10.281Z,98172.70
2018-08-30T10:51:38.540Z,98178.97
2018-08-30T10:54:07.013Z,98176.00
2018-08-30T10:56:35.279Z,98176.55
2018-08-30T10:59:03.458Z,98176.86
2018-08-30T11:01:31.915Z,98185.54
2018-08-30T11:04:00.172Z,98188.14
2018-08-30T11:06:28.378Z,98194.87
2018-08-30T11:08:56.850Z,98187.91
2018-08-30T11:11:25.356Z,98178.91
2018-08-30T11:13:53.532Z,98183.92
2018-08-30T11:16:21.730Z,98179.45
2018-08-30T11:18:49.982Z,98176.30
2018-08-30T11:21:18.183Z,98182.36
2018-08-30T11:23:46.452Z,98184.23
2018-08-30T11:26:14.694Z,98180.37
2018-08-30T11:28:42.980Z,98185.45
2018-08-30T11:31:11.477Z,98183.02
2018-08-30T11:33:39.639Z,98178.55
2018-08-30T11:36:07.905Z,98184.31
2018-08-30T11:38:36.119Z,98194.16
2018-08-30T11:41:04.357Z,98188.45
2018-08-30T11:43:32.536Z,98184.55
2018-08-30T11:46:00.723Z,98188.81
2018-08-30T11:48:28.947Z,98185.25
2018-08-30T11:50:57.125Z,98185.13
2018-08-30T11:53:25.317Z,98186.55
2018-08-30T11:55:53.505Z,98190.88
2018-08-30T11:58:22.037Z,98194.97
2018-08-30T12:00:50.260Z,98192.53
2018-08-30T12:03:20.442Z,98196.77
2018-08-30T12:05:49.594Z,98195.83
2018-08-30T12:08:17.916Z,98197.54
2018-08-30T12:10:46.113Z,98206.05
2018-08-30T12:13:14.324Z,98197.81
2018-08-30T12:15:42.498Z,98204.34
2018-08-30T12:18:10.670Z,98203.70
2018-08-30T12:20:38.972Z,98212.63
2018-08-30T12:23:07.104Z,98205.20
2018-08-30T12:25:35.380Z,98217.20
2018-08-30T12:28:03.683Z,98224.05
2018-08-30T12:30:31.975Z,98210.76
2018-08-30T12:33:00.178Z,98214.02
2018-08-30T12:35:28.566Z,98215.37
2018-08-30T12:37:56.697Z,98219.66
2018-08-30T12:40:25.057Z,98221.89
2018-08-30T12:42:53.194Z,98224.61
2018-08-30T12:45:21.313Z,98228.11
2018-08-30T12:47:49.665Z,98232.38
2018-08-30T12:50:18.055Z,98237.05
2018-08-30T12:52:46.336Z,98229.22
2018-08-30T12:55:14.424Z,98231.97
2018-08-30T12:57:42.778Z,98228.66
2018-08-30T13:00:11.102Z,98230.02
2018-08-30T13:02:39.299Z,98232.61
2018-08-30T13:05:07.478Z,98235.55
2018-08-30T13:07:35.709Z,98237.47
2018-08-30T13:10:04.075Z,98237.32
2018-08-30T13:12:32.934Z,98242.22
2018-08-30T13:15:01.090Z,98243.14
2018-08-30T13:17:29.052Z,98246.66
2018-08-30T13:19:57.253Z,98249.83
2018-08-30T13:22:25.992Z,98255.22
2018-08-30T13:24:54.322Z,98257.65
2018-08-30T13:27:22.404Z,98252.26
2018-08-30T13:29:50.834Z,98260.36
2018-08-30T13:32:18.940Z,98255.25
2018-08-30T13:34:47.308Z,98256.39
2018-08-30T13:37:15.168Z,98256.67
2018-08-30T13:39:43.665Z,98252.70
2018-08-30T13:42:11.960Z,98263.13
2018-08-30T13:44:40.556Z,98254.29
2018-08-30T13:47:08.612Z,98262.60
2018-08-30T13:49:36.710Z,98258.39
2018-08-30T13:52:05.317Z,98254.95
2018-08-30T13:54:33.519Z,98246.62
2018-08-30T13:57:01.812Z,98247.53
2018-08-30T13:59:30.077Z,98241.19
2018-08-30T14:01:58.115Z,98254.02
2018-08-30T14:04:26.380Z,98240.95
2018-08-30T14:06:54.599Z,98239.09
2018-08-30T14:09:22.761Z,98245.84
2018-08-30T14:11:51.082Z,98245.66
2018-08-30T14:14:19.235Z,98241.27
2018-08-30T14:16:47.094Z,98239.85
2018-08-30T14:19:15.772Z,98237.47
2018-08-30T14:21:43.815Z,98231.63
2018-08-30T14:24:12.024Z,98232.33
2018-08-30T14:26:40.254Z,98237.80
2018-08-30T14:29:08.742Z,98235.22
2018-08-30T14:31:36.968Z,98235.02
2018-08-30T14:34:05.157Z,98238.03
2018-08-30T14:36:33.690Z,98237.33
2018-08-30T14:39:01.974Z,98242.02
2018-08-30T14:41:30.146Z,98225.86
2018-08-30T14:43:58.242Z,98229.64
2018-08-30T14:46:26.568Z,98228.03
2018-08-30T14:48:54.810Z,98221.52
2018-08-30T14:51:22.982Z,98229.47
2018-08-30T14:53:52.181Z,98227.13
2018-08-30T14:56:19.709Z,98227.07
2018-08-30T14:58:47.909Z,98224.33
2018-08-30T15:01:16.129Z,98225.00
2018-08-30T15:03:44.366Z,98229.05
2018-08-30T15:06:12.630Z,98227.54
2018-08-30T15:08:40.868Z,98225.31
2018-08-30T15:11:09.026Z,98226.64
2018-08-30T15:13:37.185Z,98225.99
2018-08-30T15:16:05.425Z,98228.44
2018-08-30T15:18:33.881Z,98226.49
2018-08-30T15:21:02.057Z,98229.01
2018-08-30T15:23:30.858Z,98228.73
2018-08-30T15:25:58.861Z,98235.64
2018-08-30T15:28:27.444Z,98231.93
2018-08-30T15:30:55.710Z,98238.00
2018-08-30T15:33:24.113Z,98241.78
2018-08-30T15:35:52.512Z,98242.88
2018-08-30T15:38:20.695Z,98245.41
2018-08-30T15:40:48.878Z,98248.59
2018-08-30T15:43:17.096Z,98254.09
2018-08-30T15:45:45.266Z,98257.87
2018-08-30T15:48:13.455Z,98260.73
2018-08-30T15:50:41.620Z,98255.52
2018-08-30T15:53:09.813Z,98263.73
2018-08-30T15:55:37.991Z,98264.34
2018-08-30T15:58:06.241Z,98268.20
2018-08-30T16:00:34.462Z,98267.14
2018-08-30T16:03:03.201Z,98267.00
2018-08-30T16:05:31.408Z,98261.86
2018-08-30T16:07:59.640Z,98267.22
2018-08-30T16:10:27.930Z,98272.86
2018-08-30T16:12:56.185Z,98269.30
2018-08-30T16:15:24.589Z,98268.30
2018-08-30T16:17:52.857Z,98266.25
2018-08-30T16:20:21.348Z,98266.80
2018-08-30T16:22:57.827Z,98265.98
2018-08-30T16:25:25.994Z,98266.05
2018-08-30T16:27:54.276Z,98265.30
2018-08-30T16:30:22.546Z,98265.91
2018-08-30T16:32:50.718Z,98268.66
2018-08-30T16:35:18.908Z,98268.16
2018-08-30T16:37:47.196Z,98268.13
2018-08-30T16:40:15.336Z,98271.44
2018-08-30T16:42:43.508Z,98269.97
2018-08-30T16:45:11.786Z,98268.38
2018-08-30T16:47:39.992Z,98267.53
2018-08-30T16:50:08.217Z,98266.36
2018-08-30T16:52:36.742Z,98261.90
2018-08-30T16:55:05.206Z,98264.97
2018-08-30T16:57:33.462Z,98267.14
2018-08-30T17:00:01.667Z,98259.92
2018-08-30T17:02:29.848Z,98269.88
2018-08-30T17:04:58.081Z,98265.23
2018-08-30T17:07:26.437Z,98271.56
2018-08-30T17:09:54.617Z,98271.48
2018-08-30T17:12:22.989Z,98271.22
2018-08-30T17:14:51.211Z,98263.77
2018-08-30T17:17:19.570Z,98266.29
2018-08-30T17:19:47.969Z,98260.55
2018-08-30T17:22:16.487Z,98272.34
2018-08-30T17:24:44.766Z,98267.94
2018-08-30T17:27:12.935Z,98266.23
2018-08-30T17:29:41.125Z,98271.44
2018-08-30T17:32:09.329Z,98268.55
2018-08-30T17:34:37.482Z,98274.01
2018-08-30T17:37:05.761Z,98271.66
2018-08-30T17:39:33.883Z,98276.59
2018-08-30T17:42:02.116Z,98279.94
2018-08-30T17:44:30.324Z,98278.37
2018-08-30T17:46:58.686Z,98275.02
2018-08-30T17:49:27.112Z,98283.89
2018-08-30T17:51:55.818Z,98279.75
2018-08-30T17:54:24.714Z,98283.62
2018-08-30T17:56:52.920Z,98288.34
2018-08-30T17:59:21.382Z,98289.09
2018-08-30T18:01:49.624Z,98293.77
2018-08-30T18:04:17.902Z,98297.70
2018-08-30T18:06:46.152Z,98302.23
2018-08-30T18:09:14.310Z,98303.00
2018-08-30T18:11:42.501Z,98307.78
2018-08-30T18:14:10.694Z,98310.44
2018-08-30T18:16:38.975Z,98317.81
2018-08-30T18:19:07.157Z,98322.24
2018-08-30T18:21:35.365Z,98321.95
2018-08-30T18:24:03.542Z,98322.47
2018-08-30T18:26:31.719Z,98320.87
2018-08-30T18:28:59.908Z,98328.73
2018-08-30T18:31:28.184Z,98329.44
2018-08-30T18:33:56.276Z,98330.16
2018-08-30T18:36:24.527Z,98332.12
2018-08-30T18:38:52.742Z,98335.94
2018-08-30T18:41:21.036Z,98345.31
2018-08-30T18:43:49.305Z,98341.44
2018-08-30T18:46:17.696Z,98350.39
2018-08-30T18:48:45.888Z,98355.48
2018-08-30T18:51:14.100Z,98360.86
2018-08-30T18:53:42.366Z,98358.16
2018-08-30T18:56:10.548Z,98362.19
2018-08-30T18:58:38.753Z,98363.69
2018-08-30T19:01:06.993Z,98362.27
2018-08-30T19:03:35.296Z,98366.56
2018-08-30T19:06:03.490Z,98368.11
2018-08-30T19:08:31.756Z,98376.43
2018-08-30T19:10:59.928Z,98375.63
2018-08-30T19:13:28.257Z,98373.53
2018-08-30T19:16:01.533Z,98376.06
2018-08-30T19:18:35.109Z,98379.69
2018-08-30T19:21:03.278Z,98380.34
2018-08-30T19:23:31.461Z,98379.40
2018-08-30T19:25:59.665Z,98373.05
2018-08-30T19:28:27.965Z,98376.41
2018-08-30T19:30:56.138Z,98376.73
2018-08-30T19:33:24.617Z,98374.43
2018-08-30T19:35:58.125Z,98373.90
2018-08-30T19:38:26.401Z,98372.80
2018-08-30T19:40:59.963Z,98377.77
2018-08-30T19:43:28.133Z,98375.17
2018-08-30T19:45:56.321Z,98379.08
2018-08-30T19:48:24.485Z,98376.59
2018-08-30T19:50:52.677Z,98375.50
2018-08-30T19:53:20.869Z,98377.45
2018-08-30T19:55:49.050Z,98376.98
2018-08-30T19:58:17.293Z,98378.61
2018-08-30T20:00:45.480Z,98372.84
2018-08-30T20:03:13.734Z,98381.45
2018-08-30T20:05:41.938Z,98376.54
2018-08-30T20:08:10.255Z,98377.05
2018-08-30T20:10:38.432Z,98381.91
2018-08-30T20:13:06.642Z,98379.77
2018-08-30T20:15:34.840Z,98379.22
2018-08-30T20:18:03.142Z,98379.43
2018-08-30T20:20:31.443Z,98381.78
2018-08-30T20:22:59.686Z,98386.84
2018-08-30T20:25:27.853Z,98380.56
2018-08-30T20:27:56.075Z,98390.45
2018-08-30T20:30:24.217Z,98396.30
2018-08-30T20:32:52.418Z,98395.59
2018-08-30T20:35:20.663Z,98400.19
2018-08-30T20:37:48.827Z,98401.13
2018-08-30T20:40:16.992Z,98401.42
2018-08-30T20:42:45.192Z,98402.06
2018-08-30T20:45:13.391Z,98404.38
2018-08-30T20:47:41.656Z,98402.60
2018-08-30T20:50:09.866Z,98399.91
2018-08-30T20:52:38.184Z,98401.15
2018-08-30T20:55:06.420Z,98404.98
2018-08-30T20:57:34.624Z,98407.98
2018-08-30T21:00:02.799Z,98405.56
2018-08-30T21:02:31.058Z,98408.41
2018-08-30T21:04:59.446Z,98401.07
2018-08-30T21:07:27.628Z,98401.70
2018-08-30T21:09:55.808Z,98392.97
2018-08-30T21:12:24.316Z,98396.45
2018-08-30T21:14:52.647Z,98395.30
2018-08-30T21:17:20.817Z,98389.39
2018-08-30T21:19:49.012Z,98393.28
2018-08-30T21:22:17.314Z,98393.94
2018-08-30T21:24:45.472Z,98393.58
2018-08-30T21:27:13.652Z,98389.58
2018-08-30T21:29:41.946Z,98390.89
2018-08-30T21:32:10.325Z,98387.94
2018-08-30T21:34:39.034Z,98382.27
2018-08-30T21:37:07.229Z,98386.34
2018-08-30T21:39:36.042Z,98381.45
2018-08-30T21:42:04.242Z,98385.83
2018-08-30T21:44:32.441Z,98384.48
2018-08-30T21:47:00.909Z,98381.95
2018-08-30T21:49:29.161Z,98384.33
2018-08-30T21:51:57.623Z,98384.46
2018-08-30T21:54:25.889Z,98392.58
2018-08-30T21:56:54.115Z,98395.58
2018-08-30T21:59:22.285Z,98386.83
2018-08-30T22:01:50.467Z,98387.31
2018-08-30T22:04:18.647Z,98391.45
2018-08-30T22:06:46.852Z,98391.54
2018-08-30T22:09:15.043Z,98393.05
2018-08-30T22:11:43.638Z,98390.20
2018-08-30T22:14:11.889Z,98391.13
2018-08-30T22:16:40.070Z,98390.45
2018-08-30T22:19:08.257Z,98397.69
2018-08-30T22:21:36.530Z,98398.02
2018-08-30T22:24:04.703Z,98390.95
2018-08-30T22:26:32.917Z,98388.13
2018-08-30T22:29:01.086Z,98388.60
2018-08-30T22:31:29.261Z,98386.66
2018-08-30T22:33:57.486Z,98382.65
2018-08-30T22:36:25.656Z,98384.47
2018-08-30T22:38:53.834Z,98377.76
2018-08-30T22:41:22.017Z,98383.22
2018-08-30T22:43:50.205Z,98382.10
2018-08-30T22:46:18.395Z,98381.30
2018-08-30T22:48:46.727Z,98377.05
2018-08-30T22:51:14.921Z,98375.92
2018-08-30T22:53:43.525Z,98375.27
2018-08-30T22:56:11.796Z,98386.16
2018-08-30T22:58:39.980Z,98387.52
2018-08-30T23:01:08.225Z,98386.03
2018-08-30T23:03:36.415Z,98383.36
2018-08-30T23:06:04.682Z,98385.31
2018-08-30T23:08:32.880Z,98377.12
2018-08-30T23:11:01.094Z,98377.22
2018-08-30T23:13:29.268Z,98370.27
2018-08-30T23:15:57.477Z,98375.14
2018-08-30T23:18:25.676Z,98379.92
2018-08-30T23:20:53.871Z,98379.45
2018-08-30T23:23:22.117Z,98374.95
2018-08-30T23:25:50.314Z,98377.11
2018-08-30T23:28:18.650Z,98383.34
2018-08-30T23:30:46.850Z,98376.41
2018-08-30T23:33:15.114Z,98378.02
2018-08-30T23:35:43.319Z,98373.22
2018-08-30T23:38:11.569Z,98364.84
2018-08-30T23:40:39.789Z,98366.12
2018-08-30T23:43:08.005Z,98363.27
2018-08-30T23:45:36.194Z,98361.22
2018-08-30T23:48:04.719Z,98359.27
2018-08-30T23:50:33.237Z,98359.23
2018-08-30T23:53:01.420Z,98359.63
2018-08-30T23:55:29.720Z,98356.11
2018-08-30T23:59:08.247Z,98351.56
